sensor_id;sensor_type;location;lat;lon;timestamp;P1;durP1;ratioP1;P2;durP2;ratioP2
7177;SDS011;3630;42.146;24.756;2022-12-07T00:01:19;60.80;;;35.83;;
7177;SDS011;3630;42.146;24.756;2022-12-07T00:03:55;56.80;;;35.17;;
7177;SDS011;3630;42.146;24.756;2022-12-07T00:06:29;56.30;;;33.93;;
7177;SDS011;3630;42.146;24.756;2022-12-07T00:08:57;58.57;;;32.83;;
7177;SDS011;3630;42.146;24.756;2022-12-07T00:11:25;50.63;;;32.73;;
7177;SDS011;3630;42.146;24.756;2022-12-07T00:13:52;48.53;;;30.77;;
7177;SDS011;3630;42.146;24.756;2022-12-07T00:16:21;53.73;;;29.67;;
7177;SDS011;3630;42.146;24.756;2022-12-07T00:18:49;49.30;;;29.20;;
7177;SDS011;3630;42.146;24.756;2022-12-07T00:21:20;46.77;;;29.17;;
7177;SDS011;3630;42.146;24.756;2022-12-07T00:23:49;45.67;;;29.03;;
7177;SDS011;3630;42.146;24.756;2022-12-07T00:26:18;49.23;;;29.93;;
7177;SDS011;3630;42.146;24.756;2022-12-07T00:28:47;55.10;;;29.80;;
7177;SDS011;3630;42.146;24.756;2022-12-07T00:31:16;44.77;;;29.10;;
7177;SDS011;3630;42.146;24.756;2022-12-07T00:33:44;45.03;;;29.30;;
7177;SDS011;3630;42.146;24.756;2022-12-07T00:36:13;50.70;;;29.77;;
7177;SDS011;3630;42.146;24.756;2022-12-07T00:38:42;43.70;;;29.10;;
7177;SDS011;3630;42.146;24.756;2022-12-07T00:41:10;44.57;;;28.93;;
7177;SDS011;3630;42.146;24.756;2022-12-07T00:43:39;49.05;;;33.33;;
7177;SDS011;3630;42.146;24.756;2022-12-07T00:46:07;46.20;;;29.33;;
7177;SDS011;3630;42.146;24.756;2022-12-07T00:48:34;41.53;;;27.67;;
7177;SDS011;3630;42.146;24.756;2022-12-07T00:51:01;47.07;;;29.23;;
7177;SDS011;3630;42.146;24.756;2022-12-07T00:53:29;50.37;;;27.67;;
7177;SDS011;3630;42.146;24.756;2022-12-07T00:55:57;38.33;;;25.77;;
7177;SDS011;3630;42.146;24.756;2022-12-07T00:58:24;44.73;;;26.10;;
7177;SDS011;3630;42.146;24.756;2022-12-07T01:00:51;42.70;;;24.43;;
7177;SDS011;3630;42.146;24.756;2022-12-07T01:03:17;40.40;;;25.77;;
7177;SDS011;3630;42.146;24.756;2022-12-07T01:05:50;40.03;;;26.10;;
7177;SDS011;3630;42.146;24.756;2022-12-07T01:08:18;41.90;;;26.07;;
7177;SDS011;3630;42.146;24.756;2022-12-07T01:10:45;42.63;;;25.57;;
7177;SDS011;3630;42.146;24.756;2022-12-07T01:13:14;38.03;;;24.13;;
7177;SDS011;3630;42.146;24.756;2022-12-07T01:15:42;36.33;;;23.20;;
7177;SDS011;3630;42.146;24.756;2022-12-07T01:18:11;35.47;;;23.50;;
7177;SDS011;3630;42.146;24.756;2022-12-07T01:20:37;40.67;;;24.57;;
7177;SDS011;3630;42.146;24.756;2022-12-07T01:23:04;43.87;;;24.63;;
7177;SDS011;3630;42.146;24.756;2022-12-07T01:25:31;38.27;;;24.03;;
7177;SDS011;3630;42.146;24.756;2022-12-07T01:27:58;37.17;;;22.87;;
7177;SDS011;3630;42.146;24.756;2022-12-07T01:30:26;34.93;;;21.90;;
7177;SDS011;3630;42.146;24.756;2022-12-07T01:32:53;38.40;;;22.97;;
7177;SDS011;3630;42.146;24.756;2022-12-07T01:35:21;42.60;;;22.57;;
7177;SDS011;3630;42.146;24.756;2022-12-07T01:37:47;37.47;;;24.10;;
7177;SDS011;3630;42.146;24.756;2022-12-07T01:40:18;40.73;;;24.13;;
7177;SDS011;3630;42.146;24.756;2022-12-07T01:42:45;39.03;;;24.97;;
7177;SDS011;3630;42.146;24.756;2022-12-07T01:48:05;44.80;;;23.57;;
7177;SDS011;3630;42.146;24.756;2022-12-07T01:50:35;38.13;;;22.80;;
7177;SDS011;3630;42.146;24.756;2022-12-07T01:53:03;37.47;;;23.90;;
7177;SDS011;3630;42.146;24.756;2022-12-07T01:55:39;37.87;;;23.17;;
7177;SDS011;3630;42.146;24.756;2022-12-07T01:58:08;32.97;;;21.97;;
7177;SDS011;3630;42.146;24.756;2022-12-07T02:00:38;46.58;;;25.95;;
7177;SDS011;3630;42.146;24.756;2022-12-07T02:03:06;34.27;;;22.00;;
7177;SDS011;3630;42.146;24.756;2022-12-07T02:05:37;33.70;;;21.50;;
7177;SDS011;3630;42.146;24.756;2022-12-07T02:08:06;37.67;;;22.93;;
7177;SDS011;3630;42.146;24.756;2022-12-07T02:10:34;39.23;;;23.43;;
7177;SDS011;3630;42.146;24.756;2022-12-07T02:13:01;35.97;;;22.73;;
7177;SDS011;3630;42.146;24.756;2022-12-07T02:15:34;39.97;;;22.73;;
7177;SDS011;3630;42.146;24.756;2022-12-07T02:18:13;37.67;;;23.27;;
7177;SDS011;3630;42.146;24.756;2022-12-07T02:20:48;36.93;;;24.23;;
7177;SDS011;3630;42.146;24.756;2022-12-07T02:23:41;41.57;;;23.83;;
7177;SDS011;3630;42.146;24.756;2022-12-07T02:26:41;35.07;;;22.77;;
7177;SDS011;3630;42.146;24.756;2022-12-07T02:29:28;33.07;;;22.00;;
7177;SDS011;3630;42.146;24.756;2022-12-07T02:32:02;33.20;;;22.30;;
7177;SDS011;3630;42.146;24.756;2022-12-07T02:34:36;32.70;;;22.27;;
7177;SDS011;3630;42.146;24.756;2022-12-07T02:37:09;33.33;;;21.10;;
7177;SDS011;3630;42.146;24.756;2022-12-07T02:39:46;38.23;;;20.93;;
7177;SDS011;3630;42.146;24.756;2022-12-07T02:42:17;38.10;;;22.07;;
7177;SDS011;3630;42.146;24.756;2022-12-07T02:44:52;33.07;;;21.33;;
7177;SDS011;3630;42.146;24.756;2022-12-07T02:47:20;36.10;;;20.90;;
7177;SDS011;3630;42.146;24.756;2022-12-07T02:49:50;36.67;;;20.13;;
7177;SDS011;3630;42.146;24.756;2022-12-07T02:52:17;41.10;;;20.03;;
7177;SDS011;3630;42.146;24.756;2022-12-07T02:54:44;30.93;;;20.30;;
7177;SDS011;3630;42.146;24.756;2022-12-07T02:57:15;39.57;;;21.53;;
7177;SDS011;3630;42.146;24.756;2022-12-07T03:00:01;30.53;;;19.63;;
7177;SDS011;3630;42.146;24.756;2022-12-07T03:02:33;34.90;;;23.17;;
7177;SDS011;3630;42.146;24.756;2022-12-07T03:05:09;35.30;;;20.50;;
7177;SDS011;3630;42.146;24.756;2022-12-07T03:07:50;30.27;;;19.20;;
7177;SDS011;3630;42.146;24.756;2022-12-07T03:10:26;36.03;;;18.63;;
7177;SDS011;3630;42.146;24.756;2022-12-07T03:13:03;29.20;;;18.93;;
7177;SDS011;3630;42.146;24.756;2022-12-07T03:15:38;28.27;;;18.77;;
7177;SDS011;3630;42.146;24.756;2022-12-07T03:18:08;36.60;;;18.30;;
7177;SDS011;3630;42.146;24.756;2022-12-07T03:20:37;29.93;;;18.53;;
7177;SDS011;3630;42.146;24.756;2022-12-07T03:23:08;29.27;;;18.60;;
7177;SDS011;3630;42.146;24.756;2022-12-07T03:25:37;29.53;;;17.77;;
7177;SDS011;3630;42.146;24.756;2022-12-07T03:28:08;30.80;;;17.83;;
7177;SDS011;3630;42.146;24.756;2022-12-07T03:30:42;32.20;;;18.60;;
7177;SDS011;3630;42.146;24.756;2022-12-07T03:33:13;28.30;;;18.20;;
7177;SDS011;3630;42.146;24.756;2022-12-07T03:35:48;26.90;;;17.97;;
7177;SDS011;3630;42.146;24.756;2022-12-07T03:38:19;33.67;;;17.80;;
7177;SDS011;3630;42.146;24.756;2022-12-07T03:40:50;27.77;;;19.40;;
7177;SDS011;3630;42.146;24.756;2022-12-07T03:43:24;30.30;;;18.57;;
7177;SDS011;3630;42.146;24.756;2022-12-07T03:45:55;42.47;;;20.90;;
7177;SDS011;3630;42.146;24.756;2022-12-07T03:48:28;34.60;;;18.77;;
7177;SDS011;3630;42.146;24.756;2022-12-07T03:51:04;30.87;;;18.17;;
7177;SDS011;3630;42.146;24.756;2022-12-07T03:53:39;33.27;;;18.37;;
7177;SDS011;3630;42.146;24.756;2022-12-07T03:56:11;36.00;;;17.77;;
7177;SDS011;3630;42.146;24.756;2022-12-07T03:58:38;32.13;;;18.17;;
7177;SDS011;3630;42.146;24.756;2022-12-07T04:01:08;28.33;;;16.70;;
7177;SDS011;3630;42.146;24.756;2022-12-07T04:03:36;25.97;;;16.17;;
7177;SDS011;3630;42.146;24.756;2022-12-07T04:06:03;25.77;;;15.30;;
7177;SDS011;3630;42.146;24.756;2022-12-07T04:08:30;23.57;;;15.03;;
7177;SDS011;3630;42.146;24.756;2022-12-07T04:10:57;21.23;;;13.77;;
7177;SDS011;3630;42.146;24.756;2022-12-07T04:13:24;22.33;;;13.07;;
7177;SDS011;3630;42.146;24.756;2022-12-07T04:15:50;22.13;;;12.87;;
7177;SDS011;3630;42.146;24.756;2022-12-07T04:18:19;19.27;;;12.23;;
7177;SDS011;3630;42.146;24.756;2022-12-07T04:20:45;18.87;;;10.97;;
7177;SDS011;3630;42.146;24.756;2022-12-07T04:23:12;15.93;;;11.50;;
7177;SDS011;3630;42.146;24.756;2022-12-07T04:25:39;17.20;;;11.77;;
7177;SDS011;3630;42.146;24.756;2022-12-07T04:28:06;17.73;;;10.97;;
7177;SDS011;3630;42.146;24.756;2022-12-07T04:30:33;17.07;;;11.40;;
7177;SDS011;3630;42.146;24.756;2022-12-07T04:33:00;20.03;;;10.53;;
7177;SDS011;3630;42.146;24.756;2022-12-07T04:35:28;20.70;;;11.83;;
7177;SDS011;3630;42.146;24.756;2022-12-07T04:37:55;20.97;;;12.53;;
7177;SDS011;3630;42.146;24.756;2022-12-07T04:40:22;16.90;;;12.20;;
7177;SDS011;3630;42.146;24.756;2022-12-07T04:42:48;15.23;;;11.80;;
7177;SDS011;3630;42.146;24.756;2022-12-07T04:45:15;20.87;;;11.37;;
7177;SDS011;3630;42.146;24.756;2022-12-07T04:47:42;21.43;;;12.93;;
7177;SDS011;3630;42.146;24.756;2022-12-07T04:50:09;17.50;;;12.30;;
7177;SDS011;3630;42.146;24.756;2022-12-07T04:52:37;18.87;;;11.77;;
7177;SDS011;3630;42.146;24.756;2022-12-07T04:55:04;17.83;;;11.80;;
7177;SDS011;3630;42.146;24.756;2022-12-07T04:57:31;26.47;;;12.93;;
7177;SDS011;3630;42.146;24.756;2022-12-07T04:59:58;20.47;;;12.37;;
7177;SDS011;3630;42.146;24.756;2022-12-07T05:02:25;17.63;;;12.30;;
7177;SDS011;3630;42.146;24.756;2022-12-07T05:04:52;26.47;;;15.37;;
7177;SDS011;3630;42.146;24.756;2022-12-07T05:07:19;24.77;;;16.43;;
7177;SDS011;3630;42.146;24.756;2022-12-07T05:09:47;37.93;;;22.60;;
7177;SDS011;3630;42.146;24.756;2022-12-07T05:12:13;33.57;;;20.63;;
7177;SDS011;3630;42.146;24.756;2022-12-07T05:14:40;34.40;;;19.63;;
7177;SDS011;3630;42.146;24.756;2022-12-07T05:17:07;37.00;;;23.43;;
7177;SDS011;3630;42.146;24.756;2022-12-07T05:19:34;39.13;;;22.97;;
7177;SDS011;3630;42.146;24.756;2022-12-07T05:22:01;41.50;;;26.30;;
7177;SDS011;3630;42.146;24.756;2022-12-07T05:24:28;38.13;;;22.70;;
7177;SDS011;3630;42.146;24.756;2022-12-07T05:26:56;44.63;;;26.60;;
7177;SDS011;3630;42.146;24.756;2022-12-07T05:29:23;50.67;;;28.23;;
7177;SDS011;3630;42.146;24.756;2022-12-07T05:31:50;54.87;;;30.50;;
7177;SDS011;3630;42.146;24.756;2022-12-07T05:34:17;52.37;;;31.63;;
7177;SDS011;3630;42.146;24.756;2022-12-07T05:36:43;53.17;;;30.13;;
7177;SDS011;3630;42.146;24.756;2022-12-07T05:39:10;38.47;;;25.37;;
7177;SDS011;3630;42.146;24.756;2022-12-07T05:41:37;42.40;;;25.90;;
7177;SDS011;3630;42.146;24.756;2022-12-07T05:44:22;45.80;;;26.93;;
7177;SDS011;3630;42.146;24.756;2022-12-07T05:46:49;43.93;;;27.30;;
7177;SDS011;3630;42.146;24.756;2022-12-07T05:49:16;47.63;;;28.00;;
7177;SDS011;3630;42.146;24.756;2022-12-07T05:51:43;53.83;;;28.97;;
7177;SDS011;3630;42.146;24.756;2022-12-07T05:54:10;50.72;;;28.58;;
7177;SDS011;3630;42.146;24.756;2022-12-07T05:56:36;44.77;;;27.23;;
7177;SDS011;3630;42.146;24.756;2022-12-07T05:59:03;46.37;;;28.13;;
7177;SDS011;3630;42.146;24.756;2022-12-07T06:01:54;44.37;;;25.73;;
7177;SDS011;3630;42.146;24.756;2022-12-07T06:04:22;37.00;;;24.73;;
7177;SDS011;3630;42.146;24.756;2022-12-07T06:06:51;32.10;;;20.83;;
7177;SDS011;3630;42.146;24.756;2022-12-07T06:09:18;40.70;;;23.77;;
7177;SDS011;3630;42.146;24.756;2022-12-07T06:11:46;42.40;;;24.87;;
7177;SDS011;3630;42.146;24.756;2022-12-07T06:14:30;45.30;;;25.80;;
7177;SDS011;3630;42.146;24.756;2022-12-07T06:16:59;46.03;;;26.50;;
7177;SDS011;3630;42.146;24.756;2022-12-07T06:19:26;48.60;;;29.13;;
7177;SDS011;3630;42.146;24.756;2022-12-07T06:21:53;42.13;;;27.97;;
7177;SDS011;3630;42.146;24.756;2022-12-07T06:24:20;42.53;;;27.10;;
7177;SDS011;3630;42.146;24.756;2022-12-07T06:26:47;52.30;;;31.07;;
7177;SDS011;3630;42.146;24.756;2022-12-07T06:29:15;53.03;;;29.63;;
7177;SDS011;3630;42.146;24.756;2022-12-07T06:31:42;46.87;;;28.20;;
7177;SDS011;3630;42.146;24.756;2022-12-07T06:34:12;39.63;;;25.70;;
7177;SDS011;3630;42.146;24.756;2022-12-07T06:36:40;34.10;;;22.97;;
7177;SDS011;3630;42.146;24.756;2022-12-07T06:39:07;37.33;;;23.37;;
7177;SDS011;3630;42.146;24.756;2022-12-07T06:41:35;36.20;;;23.43;;
7177;SDS011;3630;42.146;24.756;2022-12-07T06:44:02;44.10;;;25.93;;
7177;SDS011;3630;42.146;24.756;2022-12-07T06:46:29;41.03;;;23.70;;
7177;SDS011;3630;42.146;24.756;2022-12-07T06:48:56;34.40;;;23.83;;
7177;SDS011;3630;42.146;24.756;2022-12-07T06:51:25;33.43;;;21.90;;
7177;SDS011;3630;42.146;24.756;2022-12-07T06:53:51;31.90;;;20.67;;
7177;SDS011;3630;42.146;24.756;2022-12-07T06:56:18;32.17;;;21.63;;
7177;SDS011;3630;42.146;24.756;2022-12-07T06:58:45;29.43;;;19.50;;
7177;SDS011;3630;42.146;24.756;2022-12-07T07:01:12;40.07;;;21.73;;
7177;SDS011;3630;42.146;24.756;2022-12-07T07:03:40;33.13;;;20.13;;
7177;SDS011;3630;42.146;24.756;2022-12-07T07:06:08;38.37;;;20.53;;
7177;SDS011;3630;42.146;24.756;2022-12-07T07:08:36;34.07;;;21.03;;
7177;SDS011;3630;42.146;24.756;2022-12-07T07:11:04;33.93;;;20.80;;
7177;SDS011;3630;42.146;24.756;2022-12-07T07:13:31;38.03;;;23.87;;
7177;SDS011;3630;42.146;24.756;2022-12-07T07:15:58;34.63;;;21.87;;
7177;SDS011;3630;42.146;24.756;2022-12-07T07:18:25;37.83;;;22.47;;
7177;SDS011;3630;42.146;24.756;2022-12-07T07:20:52;35.20;;;23.17;;
7177;SDS011;3630;42.146;24.756;2022-12-07T07:23:20;33.77;;;23.03;;
7177;SDS011;3630;42.146;24.756;2022-12-07T07:25:48;36.87;;;22.93;;
7177;SDS011;3630;42.146;24.756;2022-12-07T07:28:15;41.13;;;26.20;;
7177;SDS011;3630;42.146;24.756;2022-12-07T07:30:42;38.20;;;23.13;;
7177;SDS011;3630;42.146;24.756;2022-12-07T07:33:09;40.87;;;24.07;;
7177;SDS011;3630;42.146;24.756;2022-12-07T07:35:37;38.03;;;24.53;;
7177;SDS011;3630;42.146;24.756;2022-12-07T07:38:04;39.10;;;23.00;;
7177;SDS011;3630;42.146;24.756;2022-12-07T07:40:31;37.83;;;23.67;;
7177;SDS011;3630;42.146;24.756;2022-12-07T07:42:59;36.23;;;21.73;;
7177;SDS011;3630;42.146;24.756;2022-12-07T07:45:27;35.90;;;21.43;;
7177;SDS011;3630;42.146;24.756;2022-12-07T07:47:54;29.67;;;20.50;;
7177;SDS011;3630;42.146;24.756;2022-12-07T07:50:21;30.70;;;21.30;;
7177;SDS011;3630;42.146;24.756;2022-12-07T07:52:48;35.43;;;21.93;;
7177;SDS011;3630;42.146;24.756;2022-12-07T07:55:15;40.63;;;28.60;;
7177;SDS011;3630;42.146;24.756;2022-12-07T07:57:42;47.20;;;28.43;;
7177;SDS011;3630;42.146;24.756;2022-12-07T08:00:12;48.97;;;29.30;;
7177;SDS011;3630;42.146;24.756;2022-12-07T08:02:40;51.70;;;29.07;;
7177;SDS011;3630;42.146;24.756;2022-12-07T08:05:08;44.70;;;26.43;;
7177;SDS011;3630;42.146;24.756;2022-12-07T08:07:36;45.53;;;25.87;;
7177;SDS011;3630;42.146;24.756;2022-12-07T08:10:04;49.17;;;26.37;;
7177;SDS011;3630;42.146;24.756;2022-12-07T08:12:35;40.63;;;25.70;;
7177;SDS011;3630;42.146;24.756;2022-12-07T08:15:02;47.33;;;26.00;;
7177;SDS011;3630;42.146;24.756;2022-12-07T08:17:31;55.47;;;32.47;;
7177;SDS011;3630;42.146;24.756;2022-12-07T08:19:59;50.27;;;34.20;;
7177;SDS011;3630;42.146;24.756;2022-12-07T08:22:25;56.40;;;30.47;;
7177;SDS011;3630;42.146;24.756;2022-12-07T08:24:52;51.17;;;28.40;;
7177;SDS011;3630;42.146;24.756;2022-12-07T08:27:19;40.70;;;27.77;;
7177;SDS011;3630;42.146;24.756;2022-12-07T08:29:48;47.23;;;27.40;;
7177;SDS011;3630;42.146;24.756;2022-12-07T08:32:15;48.53;;;26.90;;
7177;SDS011;3630;42.146;24.756;2022-12-07T08:34:43;39.80;;;26.87;;
7177;SDS011;3630;42.146;24.756;2022-12-07T08:37:10;40.70;;;24.97;;
7177;SDS011;3630;42.146;24.756;2022-12-07T08:39:37;43.87;;;27.53;;
7177;SDS011;3630;42.146;24.756;2022-12-07T08:42:04;42.60;;;26.67;;
7177;SDS011;3630;42.146;24.756;2022-12-07T08:44:31;43.73;;;26.17;;
7177;SDS011;3630;42.146;24.756;2022-12-07T08:46:59;45.10;;;28.03;;
7177;SDS011;3630;42.146;24.756;2022-12-07T08:49:30;41.47;;;27.87;;
7177;SDS011;3630;42.146;24.756;2022-12-07T08:52:01;43.30;;;26.70;;
7177;SDS011;3630;42.146;24.756;2022-12-07T08:54:31;47.43;;;28.83;;
7177;SDS011;3630;42.146;24.756;2022-12-07T08:57:01;51.47;;;30.50;;
7177;SDS011;3630;42.146;24.756;2022-12-07T08:59:28;51.77;;;30.37;;
7177;SDS011;3630;42.146;24.756;2022-12-07T09:01:55;55.57;;;31.67;;
7177;SDS011;3630;42.146;24.756;2022-12-07T09:04:22;52.63;;;31.87;;
7177;SDS011;3630;42.146;24.756;2022-12-07T09:06:49;50.33;;;29.77;;
7177;SDS011;3630;42.146;24.756;2022-12-07T09:09:17;51.90;;;31.50;;
7177;SDS011;3630;42.146;24.756;2022-12-07T09:11:44;53.20;;;31.53;;
7177;SDS011;3630;42.146;24.756;2022-12-07T09:14:11;48.63;;;32.87;;
7177;SDS011;3630;42.146;24.756;2022-12-07T09:16:38;50.37;;;33.53;;
7177;SDS011;3630;42.146;24.756;2022-12-07T09:19:05;50.57;;;30.63;;
7177;SDS011;3630;42.146;24.756;2022-12-07T09:21:37;46.77;;;31.10;;
7177;SDS011;3630;42.146;24.756;2022-12-07T09:24:04;49.80;;;29.97;;
7177;SDS011;3630;42.146;24.756;2022-12-07T09:26:33;49.27;;;30.97;;
7177;SDS011;3630;42.146;24.756;2022-12-07T09:29:00;49.90;;;32.30;;
7177;SDS011;3630;42.146;24.756;2022-12-07T09:31:27;47.90;;;30.00;;
7177;SDS011;3630;42.146;24.756;2022-12-07T09:33:54;52.63;;;32.63;;
7177;SDS011;3630;42.146;24.756;2022-12-07T09:36:21;52.70;;;33.00;;
7177;SDS011;3630;42.146;24.756;2022-12-07T09:38:48;55.63;;;31.90;;
7177;SDS011;3630;42.146;24.756;2022-12-07T09:41:15;52.43;;;33.27;;
7177;SDS011;3630;42.146;24.756;2022-12-07T09:43:43;48.00;;;31.80;;
7177;SDS011;3630;42.146;24.756;2022-12-07T09:46:13;57.83;;;31.87;;
7177;SDS011;3630;42.146;24.756;2022-12-07T09:48:43;47.90;;;29.80;;
7177;SDS011;3630;42.146;24.756;2022-12-07T09:51:13;47.63;;;32.63;;
7177;SDS011;3630;42.146;24.756;2022-12-07T09:53:42;47.97;;;30.03;;
7177;SDS011;3630;42.146;24.756;2022-12-07T09:56:11;46.20;;;30.73;;
7177;SDS011;3630;42.146;24.756;2022-12-07T09:58:39;50.67;;;30.47;;
7177;SDS011;3630;42.146;24.756;2022-12-07T10:01:10;56.63;;;31.03;;
7177;SDS011;3630;42.146;24.756;2022-12-07T10:03:52;63.10;;;32.43;;
7177;SDS011;3630;42.146;24.756;2022-12-07T10:06:23;45.73;;;29.83;;
7177;SDS011;3630;42.146;24.756;2022-12-07T10:08:50;50.37;;;29.47;;
7177;SDS011;3630;42.146;24.756;2022-12-07T10:11:16;46.90;;;30.20;;
7177;SDS011;3630;42.146;24.756;2022-12-07T10:13:43;48.13;;;30.93;;
7177;SDS011;3630;42.146;24.756;2022-12-07T10:16:27;45.90;;;30.63;;
7177;SDS011;3630;42.146;24.756;2022-12-07T10:19:22;51.00;;;31.33;;
7177;SDS011;3630;42.146;24.756;2022-12-07T10:22:04;41.63;;;27.73;;
7177;SDS011;3630;42.146;24.756;2022-12-07T10:24:37;42.87;;;28.70;;
7177;SDS011;3630;42.146;24.756;2022-12-07T10:27:09;44.17;;;29.13;;
7177;SDS011;3630;42.146;24.756;2022-12-07T10:29:46;46.30;;;30.00;;
7177;SDS011;3630;42.146;24.756;2022-12-07T10:32:27;42.77;;;26.77;;
7177;SDS011;3630;42.146;24.756;2022-12-07T10:35:15;42.33;;;25.80;;
7177;SDS011;3630;42.146;24.756;2022-12-07T10:37:46;47.90;;;25.83;;
7177;SDS011;3630;42.146;24.756;2022-12-07T10:40:23;35.73;;;23.97;;
7177;SDS011;3630;42.146;24.756;2022-12-07T10:43:12;47.03;;;26.53;;
7177;SDS011;3630;42.146;24.756;2022-12-07T10:45:57;28.97;;;20.80;;
7177;SDS011;3630;42.146;24.756;2022-12-07T10:48:47;33.77;;;21.33;;
7177;SDS011;3630;42.146;24.756;2022-12-07T10:51:23;35.30;;;21.70;;
7177;SDS011;3630;42.146;24.756;2022-12-07T10:54:01;41.90;;;26.03;;
7177;SDS011;3630;42.146;24.756;2022-12-07T10:56:42;35.70;;;23.13;;
7177;SDS011;3630;42.146;24.756;2022-12-07T10:59:39;37.00;;;23.43;;
7177;SDS011;3630;42.146;24.756;2022-12-07T11:02:23;37.97;;;23.93;;
7177;SDS011;3630;42.146;24.756;2022-12-07T11:05:01;36.00;;;22.17;;
7177;SDS011;3630;42.146;24.756;2022-12-07T11:07:39;32.03;;;21.67;;
7177;SDS011;3630;42.146;24.756;2022-12-07T11:10:15;33.63;;;22.80;;
7177;SDS011;3630;42.146;24.756;2022-12-07T11:12:58;36.63;;;22.90;;
7177;SDS011;3630;42.146;24.756;2022-12-07T11:15:45;34.00;;;21.40;;
7177;SDS011;3630;42.146;24.756;2022-12-07T11:18:25;35.37;;;22.27;;
7177;SDS011;3630;42.146;24.756;2022-12-07T11:21:00;39.20;;;25.77;;
7177;SDS011;3630;42.146;24.756;2022-12-07T11:23:39;34.60;;;23.17;;
7177;SDS011;3630;42.146;24.756;2022-12-07T11:26:14;45.03;;;24.93;;
7177;SDS011;3630;42.146;24.756;2022-12-07T11:31:50;35.77;;;21.67;;
7177;SDS011;3630;42.146;24.756;2022-12-07T11:34:26;36.30;;;21.27;;
7177;SDS011;3630;42.146;24.756;2022-12-07T11:37:05;41.73;;;22.33;;
7177;SDS011;3630;42.146;24.756;2022-12-07T11:39:39;32.70;;;21.37;;
7177;SDS011;3630;42.146;24.756;2022-12-07T11:42:12;32.60;;;21.03;;
7177;SDS011;3630;42.146;24.756;2022-12-07T11:44:45;38.53;;;20.40;;
7177;SDS011;3630;42.146;24.756;2022-12-07T11:47:18;35.70;;;22.07;;
7177;SDS011;3630;42.146;24.756;2022-12-07T11:49:51;42.53;;;23.73;;
7177;SDS011;3630;42.146;24.756;2022-12-07T11:52:25;29.93;;;21.77;;
7177;SDS011;3630;42.146;24.756;2022-12-07T11:54:57;33.13;;;22.20;;
7177;SDS011;3630;42.146;24.756;2022-12-07T11:57:28;38.03;;;23.40;;
7177;SDS011;3630;42.146;24.756;2022-12-07T12:00:04;35.10;;;21.90;;
7177;SDS011;3630;42.146;24.756;2022-12-07T12:02:35;36.97;;;21.10;;
7177;SDS011;3630;42.146;24.756;2022-12-07T12:05:13;32.17;;;21.97;;
7177;SDS011;3630;42.146;24.756;2022-12-07T12:07:44;33.13;;;21.47;;
7177;SDS011;3630;42.146;24.756;2022-12-07T12:10:17;33.23;;;22.03;;
7177;SDS011;3630;42.146;24.756;2022-12-07T12:12:54;32.37;;;20.23;;
7177;SDS011;3630;42.146;24.756;2022-12-07T12:15:53;32.90;;;22.13;;
7177;SDS011;3630;42.146;24.756;2022-12-07T12:18:37;31.10;;;20.47;;
7177;SDS011;3630;42.146;24.756;2022-12-07T12:21:18;38.33;;;24.10;;
7177;SDS011;3630;42.146;24.756;2022-12-07T12:23:52;31.07;;;20.73;;
7177;SDS011;3630;42.146;24.756;2022-12-07T12:26:25;30.37;;;20.40;;
7177;SDS011;3630;42.146;24.756;2022-12-07T12:28:54;30.40;;;21.87;;
7177;SDS011;3630;42.146;24.756;2022-12-07T12:31:32;31.50;;;21.43;;
7177;SDS011;3630;42.146;24.756;2022-12-07T12:34:03;34.73;;;21.67;;
7177;SDS011;3630;42.146;24.756;2022-12-07T12:36:44;33.50;;;22.50;;
7177;SDS011;3630;42.146;24.756;2022-12-07T12:39:14;37.03;;;23.90;;
7177;SDS011;3630;42.146;24.756;2022-12-07T12:41:59;30.47;;;21.13;;
7177;SDS011;3630;42.146;24.756;2022-12-07T12:47:42;35.43;;;22.47;;
7177;SDS011;3630;42.146;24.756;2022-12-07T12:50:19;35.00;;;22.73;;
7177;SDS011;3630;42.146;24.756;2022-12-07T12:52:58;38.73;;;27.30;;
7177;SDS011;3630;42.146;24.756;2022-12-07T12:58:46;32.07;;;20.83;;
7177;SDS011;3630;42.146;24.756;2022-12-07T13:04:18;38.27;;;24.17;;
7177;SDS011;3630;42.146;24.756;2022-12-07T13:06:50;32.87;;;21.10;;
7177;SDS011;3630;42.146;24.756;2022-12-07T13:09:19;39.13;;;22.13;;
7177;SDS011;3630;42.146;24.756;2022-12-07T13:11:50;28.07;;;20.27;;
7177;SDS011;3630;42.146;24.756;2022-12-07T13:23:25;30.83;;;20.53;;
7177;SDS011;3630;42.146;24.756;2022-12-07T13:26:00;31.67;;;20.30;;
7177;SDS011;3630;42.146;24.756;2022-12-07T13:28:35;32.43;;;20.53;;
7177;SDS011;3630;42.146;24.756;2022-12-07T13:31:10;32.50;;;20.90;;
7177;SDS011;3630;42.146;24.756;2022-12-07T13:33:42;34.00;;;23.33;;
7177;SDS011;3630;42.146;24.756;2022-12-07T13:36:11;30.87;;;20.93;;
7177;SDS011;3630;42.146;24.756;2022-12-07T13:38:48;32.17;;;20.63;;
7177;SDS011;3630;42.146;24.756;2022-12-07T13:41:18;29.97;;;22.27;;
7177;SDS011;3630;42.146;24.756;2022-12-07T13:43:49;27.23;;;19.87;;
7177;SDS011;3630;42.146;24.756;2022-12-07T13:46:19;30.27;;;20.97;;
7177;SDS011;3630;42.146;24.756;2022-12-07T13:48:51;31.43;;;20.63;;
7177;SDS011;3630;42.146;24.756;2022-12-07T13:51:21;32.33;;;20.73;;
7177;SDS011;3630;42.146;24.756;2022-12-07T13:53:50;34.23;;;21.03;;
7177;SDS011;3630;42.146;24.756;2022-12-07T13:56:20;30.27;;;20.23;;
7177;SDS011;3630;42.146;24.756;2022-12-07T13:58:50;28.93;;;21.77;;
7177;SDS011;3630;42.146;24.756;2022-12-07T14:01:17;28.03;;;19.03;;
7177;SDS011;3630;42.146;24.756;2022-12-07T14:03:43;27.90;;;19.70;;
7177;SDS011;3630;42.146;24.756;2022-12-07T14:06:21;29.73;;;20.40;;
7177;SDS011;3630;42.146;24.756;2022-12-07T14:09:05;33.10;;;20.53;;
7177;SDS011;3630;42.146;24.756;2022-12-07T14:11:42;34.03;;;23.23;;
7177;SDS011;3630;42.146;24.756;2022-12-07T14:14:11;31.43;;;22.67;;
7177;SDS011;3630;42.146;24.756;2022-12-07T14:16:43;34.77;;;23.33;;
7177;SDS011;3630;42.146;24.756;2022-12-07T14:22:26;40.87;;;25.27;;
7177;SDS011;3630;42.146;24.756;2022-12-07T14:25:00;40.17;;;25.27;;
7177;SDS011;3630;42.146;24.756;2022-12-07T14:27:49;40.47;;;28.40;;
7177;SDS011;3630;42.146;24.756;2022-12-07T14:30:22;42.83;;;27.47;;
7177;SDS011;3630;42.146;24.756;2022-12-07T14:32:51;38.70;;;25.43;;
7177;SDS011;3630;42.146;24.756;2022-12-07T14:35:20;36.27;;;25.80;;
7177;SDS011;3630;42.146;24.756;2022-12-07T14:37:47;42.00;;;30.10;;
7177;SDS011;3630;42.146;24.756;2022-12-07T14:40:16;40.67;;;29.50;;
7177;SDS011;3630;42.146;24.756;2022-12-07T14:42:44;42.80;;;29.20;;
7177;SDS011;3630;42.146;24.756;2022-12-07T14:45:13;42.03;;;26.70;;
7177;SDS011;3630;42.146;24.756;2022-12-07T14:47:43;45.60;;;28.43;;
7177;SDS011;3630;42.146;24.756;2022-12-07T14:50:12;91.43;;;54.10;;
7177;SDS011;3630;42.146;24.756;2022-12-07T14:52:39;119.33;;;67.83;;
7177;SDS011;3630;42.146;24.756;2022-12-07T14:55:12;84.53;;;49.83;;
7177;SDS011;3630;42.146;24.756;2022-12-07T14:57:42;69.17;;;35.43;;
7177;SDS011;3630;42.146;24.756;2022-12-07T15:00:13;51.93;;;33.20;;
7177;SDS011;3630;42.146;24.756;2022-12-07T15:02:42;55.63;;;36.40;;
7177;SDS011;3630;42.146;24.756;2022-12-07T15:05:10;56.03;;;34.03;;
7177;SDS011;3630;42.146;24.756;2022-12-07T15:07:38;62.27;;;34.97;;
7177;SDS011;3630;42.146;24.756;2022-12-07T15:10:06;48.67;;;33.03;;
7177;SDS011;3630;42.146;24.756;2022-12-07T15:12:39;62.83;;;37.97;;
7177;SDS011;3630;42.146;24.756;2022-12-07T15:15:06;63.60;;;38.17;;
7177;SDS011;3630;42.146;24.756;2022-12-07T15:17:34;64.93;;;41.72;;
7177;SDS011;3630;42.146;24.756;2022-12-07T15:20:04;68.10;;;38.70;;
7177;SDS011;3630;42.146;24.756;2022-12-07T15:22:32;61.50;;;36.70;;